Предлагаем Вашему вниманию английскую версию страницы: AUTOTAF.ME 26291 - aviation weather forecast Borovichi

AUTOTAF 26291 - авиапрогноз Боровичи

Сегодня рассвет 04:08 UTC, восход солнца 04:50 UTC,
местный полдень 09:28 UTC, заход солнца 14:05 UTC,
наступление темноты 14:47 UTC.

Краткий прогноз 26291 на 9 часов

AUTOTAF.ME 26291 270800Z 2709/2718 17005G12MPS 9999 BKN009    
  BECMG 2710/2712 BKN016  
  BECMG 2713/2715 BKN008  
  FM271800 18004MPS 5000 BR BKN008

Детальный прогноз 26291 на 24 часа

AUTOTAF.ME 26291 270800Z 2709/2809 17005G12MPS 9999 BKN009 TX10/2712Z TN07/2721Z  
  BECMG 2710/2712 BKN016  
  BECMG 2713/2715 BKN008  
  FM271800 18004MPS 5000 BR BKN008  
  FM280000 18004MPS 3000 BR BKN005  
  FM280600 19005G13MPS 5000 BR BKN007 
  FM280900 22006G13MPS 9999 -RA BKN007

Подробный табличный прогноз

Время (UTC) miniAUTOTAF на 3 ч WX FZLVL
M AGL
ICE TURB Т
(°С)
Тd
(°С)
f(%) QNH
(гПа)
WIND/T
06 18004MPS 5000 BR BKN009 BR 2400 MOD FL90/FL100 MOD SFC/FL20 7 5 88 1019 ...
09 17005G12MPS 9999 BKN009 2550 MOD FL90/FL100 MOD SFC/FL20 9 6 79 1019 ...
12 17005G13MPS 9999 BKN016 2550 MOD FL90/FL100 MOD SFC/FL20 10 6 73 1018 ...
15 17004MPS 9999 BKN008 2550 MOD FL90/FL100 MOD SFC/FL30 8 6 82 1017 ...
18 18004MPS 5000 BR BKN008 BR 2700 8 6 86 1017 ...
21 18004MPS 5000 BR BKN008 BR 2550 FBL FL110/FL120 7 6 90 1016 ...
28.10.2020
00 18004MPS 3000 BR BKN005 BR 2400 7 6 92 1016 ...
03 18005G14MPS 3000 BR BKN005 BR 2100 FBL FL90/FL100 MOD FL30/FL70 7 6 91 1014 ...
06 19005G13MPS 5000 BR BKN007 BR 2100 FBL FL90/FL100 MOD FL30/FL40 8 6 90 1013 ...
09 22006G13MPS 9999 -RA BKN007 -RA 2100 FBL FL90/FL170 MOD SFC/FL30 10 8 84 1014 ...
12 23004MPS 5000 BR BKN008 BR 1950 FBL FL70/FL90 MOD SFC/FL30 10 8 89 1015 ...
15 21003MPS 3000 BR OVC005 BR 2100 MOD FL30/FL40 9 8 92 1017 ...
18 18003MPS 1000 BR BKN003 BR 2100 MOD FL190/FL200 8 7 96 1017 ...
21 VRB02MPS 3000 BR OVC005 BR 2100 FBL FL90/FL100 9 8 96 1017 ...
29.10.2020
00 17003MPS 2000 RA BR OVC005 RA BR 2100 MOD FL120/FL130 9 8 96 1016 ...
03 20004MPS 3000 -RA BR OVC005 -RA BR 2100 FBL FL90/FL110 9 9 94 1015 ...


Широта 58.4°, долгота 33.9°, высота 89 м абс.
Средняя высота рельефа местности 149 м абс.
Прогнозы обновляются четыре раза в сутки: в 02, 08, 14, 20 ч всемирного времени.


Выбрать прогноз по другой модели Боровичи
Онлайн-сводка гроз по Боровичи (для РФ и ближнего зарубежья)
Карта фактических гроз в окрестностях Боровичи
Динамические прогностические карты (ventusky.com)
Прогностическая карта высоты нижней границы облаков по Боровичи (windy.com)
Выбрать другой город

Прогноз предназначен для личного научно-познавательного использования частными лицами
и не предназначен для принятия важных решений и выполнения реальных полётов воздушных судов

При копировании или ином использовании любых материалов данного сайта ссылка на © meteocenter.asia обязательна.

0.99/1.5